Wetterdaten: aktuell Dienstag, 21.05.2024 03:05
Datum Zeit Temp. A. Feuchte A. Luftdruck Regen Wind Richtung Richtung Windben
21.05.2024 03:05 14,8 C 79 % 1010,2 hPa 0,0 l/m 0,0 km/h N 350 0,0 km/h
21.05.2024 03:00 14,8 C 79 % 1010,2 hPa 0,0 l/m 0,0 km/h N 350 0,0 km/h
21.05.2024 02:55 14,9 C 80 % 1010,1 hPa 0,0 l/m 0,0 km/h N 352 0,0 km/h
21.05.2024 02:50 14,9 C 80 % 1010,2 hPa 0,0 l/m 0,0 km/h N 352 0,0 km/h
21.05.2024 02:45 14,9 C 81 % 1010,2 hPa 0,0 l/m 0,0 km/h N 352 0,0 km/h
21.05.2024 02:40 15,0 C 81 % 1010,2 hPa 0,0 l/m 0,0 km/h N 352 0,0 km/h
21.05.2024 02:35 15,1 C 82 % 1010,2 hPa 0,0 l/m 0,0 km/h N 352 0,0 km/h
21.05.2024 02:30 15,1 C 82 % 1010,4 hPa 0,0 l/m 0,0 km/h N 352 0,0 km/h
21.05.2024 02:25 15,0 C 82 % 1010,3 hPa 0,0 l/m 0,0 km/h N 352 0,0 km/h
21.05.2024 02:20 14,9 C 82 % 1010,3 hPa 0,0 l/m 0,0 km/h N 352 0,0 km/h
21.05.2024 02:15 15,0 C 82 % 1010,4 hPa 0,0 l/m 0,0 km/h N 352 0,0 km/h
21.05.2024 02:10 15,1 C 82 % 1010,5 hPa 0,0 l/m 0,0 km/h N 352 0,0 km/h
21.05.2024 02:05 15,2 C 82 % 1010,5 hPa 0,0 l/m 0,0 km/h N 352 0,0 km/h
21.05.2024 02:00 15,2 C 82 % 1010,6 hPa 0,0 l/m 0,0 km/h N 352 0,0 km/h
21.05.2024 01:55 15,1 C 83 % 1010,5 hPa 0,0 l/m 0,0 km/h N 352 0,0 km/h
21.05.2024 01:50 15,2 C 82 % 1010,4 hPa 0,0 l/m 0,0 km/h N 352 0,0 km/h
21.05.2024 01:45 15,2 C 82 % 1010,4 hPa 0,0 l/m 0,0 km/h N 352 0,0 km/h
21.05.2024 01:40 15,1 C 82 % 1010,4 hPa 0,0 l/m 0,0 km/h N-NW 347 0,0 km/h
21.05.2024 01:35 15,0 C 83 % 1010,5 hPa 0,0 l/m 0,0 km/h N-NW 343 0,0 km/h
21.05.2024 01:30 15,0 C 83 % 1010,5 hPa 0,0 l/m 0,0 km/h N-NW 342 0,0 km/h
21.05.2024 01:25 15,1 C 82 % 1010,4 hPa 0,0 l/m 0,0 km/h N-NW 341 0,0 km/h
21.05.2024 01:20 15,1 C 82 % 1010,4 hPa 0,0 l/m 0,0 km/h N-NW 344 0,0 km/h
21.05.2024 01:15 15,1 C 82 % 1010,4 hPa 0,0 l/m 0,0 km/h N-NW 330 0,0 km/h
21.05.2024 01:10 15,0 C 82 % 1010,5 hPa 0,0 l/m 0,0 km/h NW 323 0,0 km/h
21.05.2024 01:05 15,1 C 82 % 1010,4 hPa 0,0 l/m 0,0 km/h N-NW 336 0,0 km/h
21.05.2024 01:00 15,0 C 82 % 1010,5 hPa 0,0 l/m 0,0 km/h N-NW 346 0,0 km/h
21.05.2024 00:55 14,9 C 83 % 1010,5 hPa 0,0 l/m 0,0 km/h N-NW 332 0,0 km/h
21.05.2024 00:50 14,9 C 83 % 1010,6 hPa 0,0 l/m 0,0 km/h N 349 0,0 km/h
21.05.2024 00:45 15,0 C 82 % 1010,6 hPa 0,0 l/m 0,0 km/h N 7 0,0 km/h
21.05.2024 00:40 15,0 C 82 % 1010,7 hPa 0,0 l/m 0,0 km/h N 355 0,0 km/h
21.05.2024 00:35 15,0 C 83 % 1010,7 hPa 0,0 l/m 0,0 km/h N 359 0,0 km/h
21.05.2024 00:30 15,0 C 82 % 1010,7 hPa 0,0 l/m 0,0 km/h N-NW 345 0,0 km/h
21.05.2024 00:25 15,1 C 82 % 1010,7 hPa 0,0 l/m 0,3 km/h N 350 8,0 km/h
21.05.2024 00:20 15,3 C 83 % 1010,8 hPa 0,0 l/m 0,0 km/h N-NW 345 0,0 km/h
21.05.2024 00:15 15,4 C 82 % 1010,9 hPa 0,0 l/m 0,0 km/h N-NW 336 0,0 km/h
21.05.2024 00:10 15,3 C 82 % 1010,9 hPa 0,0 l/m 0,0 km/h NW 325 0,0 km/h
21.05.2024 00:05 15,3 C 82 % 1011,0 hPa 0,0 l/m 0,0 km/h NW 323 0,0 km/h
21.05.2024 00:00 15,2 C 83 % 1011,0 hPa 0,0 l/m 0,0 km/h N 352 0,0 km/h
20.05.2024 23:55 15,3 C 83 % 1011,0 hPa 0,0 l/m 0,0 km/h N-NW 348 0,0 km/h
20.05.2024 23:50 15,6 C 82 % 1011,0 hPa 0,0 l/m 0,0 km/h N 350 0,0 km/h
20.05.2024 23:45 15,8 C 82 % 1011,0 hPa 0,0 l/m 0,0 km/h N-NW 345 0,0 km/h
20.05.2024 23:40 16,1 C 82 % 1011,1 hPa 0,0 l/m 0,0 km/h N-NW 347 0,0 km/h
20.05.2024 23:35 16,2 C 82 % 1011,1 hPa 0,0 l/m 0,0 km/h N-NW 346 0,0 km/h
20.05.2024 23:30 16,4 C 82 % 1011,2 hPa 0,0 l/m 0,0 km/h N-NW 346 0,0 km/h
20.05.2024 23:25 16,4 C 82 % 1011,1 hPa 0,0 l/m 0,0 km/h N-NW 346 0,0 km/h
20.05.2024 23:20 16,3 C 82 % 1011,2 hPa 0,0 l/m 0,0 km/h N-NW 346 0,0 km/h
20.05.2024 23:15 16,3 C 82 % 1011,2 hPa 0,0 l/m 0,0 km/h N 350 0,0 km/h
20.05.2024 23:10 16,3 C 82 % 1011,2 hPa 0,0 l/m 0,0 km/h N 350 0,0 km/h
20.05.2024 23:05 16,3 C 82 % 1011,2 hPa 0,0 l/m 0,0 km/h N 354 0,0 km/h
20.05.2024 23:00 16,3 C 82 % 1011,2 hPa 0,0 l/m 0,0 km/h N 353 0,0 km/h
20.05.2024 22:55 16,4 C 81 % 1011,3 hPa 0,0 l/m 0,0 km/h N-NW 348 0,0 km/h
20.05.2024 22:50 16,3 C 82 % 1011,4 hPa 0,0 l/m 0,0 km/h N-NW 335 0,0 km/h
20.05.2024 22:45 16,1 C 82 % 1011,4 hPa 0,0 l/m 0,0 km/h N-NW 347 0,0 km/h
20.05.2024 22:40 16,0 C 82 % 1011,4 hPa 0,0 l/m 0,0 km/h N 352 0,0 km/h
20.05.2024 22:35 15,8 C 82 % 1011,5 hPa 0,0 l/m 0,0 km/h N-NW 336 0,0 km/h
20.05.2024 22:30 15,7 C 82 % 1011,4 hPa 0,0 l/m 0,0 km/h N-NW 333 0,0 km/h
20.05.2024 22:25 15,6 C 82 % 1011,3 hPa 0,0 l/m 0,0 km/h N 350 0,0 km/h
20.05.2024 22:20 15,5 C 82 % 1011,3 hPa 0,0 l/m 0,0 km/h N 352 0,0 km/h
20.05.2024 22:15 15,4 C 82 % 1011,3 hPa 0,0 l/m 0,0 km/h N-NW 338 0,0 km/h
20.05.2024 22:10 15,4 C 82 % 1011,3 hPa 0,0 l/m 0,0 km/h N 360 0,0 km/h
20.05.2024 22:05 15,4 C 82 % 1011,3 hPa 0,0 l/m 0,3 km/h N 353 8,0 km/h
20.05.2024 22:00 15,4 C 82 % 1011,3 hPa 0,0 l/m 0,0 km/h N-NW 348 0,0 km/h
20.05.2024 21:55 15,4 C 82 % 1011,3 hPa 0,0 l/m 0,1 km/h N 356 6,4 km/h
20.05.2024 21:50 15,3 C 82 % 1011,4 hPa 0,0 l/m 0,0 km/h N 360 0,0 km/h
20.05.2024 21:45 15,3 C 82 % 1011,2 hPa 0,0 l/m 0,7 km/h N 7 9,7 km/h
20.05.2024 21:40 15,3 C 82 % 1011,2 hPa 0,0 l/m 0,0 km/h N-NW 347 0,0 km/h
20.05.2024 21:35 15,4 C 82 % 1011,2 hPa 0,0 l/m 0,0 km/h N 357 0,0 km/h
20.05.2024 21:30 15,4 C 82 % 1011,1 hPa 0,0 l/m 0,0 km/h N 358 0,0 km/h
20.05.2024 21:25 15,5 C 82 % 1011,1 hPa 0,0 l/m 0,0 km/h N 3 0,0 km/h
20.05.2024 21:20 15,6 C 82 % 1011,0 hPa 0,0 l/m 0,0 km/h N 357 0,0 km/h
20.05.2024 21:15 15,7 C 82 % 1010,9 hPa 0,0 l/m 0,0 km/h N 359 0,0 km/h
20.05.2024 21:10 15,8 C 82 % 1010,9 hPa 0,0 l/m 0,0 km/h N 7 0,0 km/h
20.05.2024 21:05 15,9 C 82 % 1010,8 hPa 0,0 l/m 0,0 km/h N 2 0,0 km/h
20.05.2024 21:00 16,2 C 82 % 1010,8 hPa 0,0 l/m 0,0 km/h N 7 0,0 km/h
20.05.2024 20:55 16,4 C 81 % 1010,8 hPa 0,0 l/m 0,0 km/h N 360 0,0 km/h
20.05.2024 20:50 16,5 C 81 % 1010,7 hPa 0,0 l/m 0,0 km/h N 356 1,6 km/h
20.05.2024 20:45 16,6 C 81 % 1010,6 hPa 0,0 l/m 0,5 km/h N 358 9,7 km/h
20.05.2024 20:40 16,7 C 81 % 1010,6 hPa 0,0 l/m 0,0 km/h N 359 0,0 km/h
20.05.2024 20:35 16,8 C 81 % 1010,6 hPa 0,0 l/m 0,0 km/h N 353 0,0 km/h
20.05.2024 20:30 17,0 C 81 % 1010,6 hPa 0,0 l/m 0,0 km/h N 2 0,0 km/h
20.05.2024 20:25 17,1 C 81 % 1010,6 hPa 0,0 l/m 0,0 km/h N 355 0,0 km/h
20.05.2024 20:20 17,2 C 81 % 1010,6 hPa 0,0 l/m 0,0 km/h N-NW 337 0,0 km/h
20.05.2024 20:15 17,3 C 81 % 1010,6 hPa 0,0 l/m 0,0 km/h N 356 0,0 km/h
20.05.2024 20:10 17,3 C 81 % 1010,6 hPa 0,0 l/m 0,0 km/h N 353 0,0 km/h
20.05.2024 20:05 17,6 C 81 % 1010,6 hPa 0,0 l/m 0,0 km/h N 7 0,0 km/h
20.05.2024 20:00 17,8 C 81 % 1010,5 hPa 0,0 l/m 0,0 km/h N 354 0,0 km/h
20.05.2024 19:55 18,1 C 80 % 1010,5 hPa 0,0 l/m 0,0 km/h N 353 0,0 km/h
20.05.2024 19:50 18,3 C 80 % 1010,5 hPa 0,0 l/m 0,0 km/h N-NW 345 0,0 km/h
20.05.2024 19:45 18,6 C 79 % 1010,5 hPa 0,0 l/m 0,0 km/h N 357 0,0 km/h
20.05.2024 19:40 18,8 C 78 % 1010,5 hPa 0,0 l/m 0,0 km/h N 358 0,0 km/h
20.05.2024 19:35 19,1 C 77 % 1010,5 hPa 0,0 l/m 0,0 km/h N-NW 347 0,0 km/h
20.05.2024 19:30 19,4 C 75 % 1010,5 hPa 0,0 l/m 0,0 km/h N-NO 21 0,0 km/h
20.05.2024 19:25 19,4 C 74 % 1010,4 hPa 0,0 l/m 0,0 km/h N 2 0,0 km/h
20.05.2024 19:20 19,4 C 74 % 1010,4 hPa 0,0 l/m 0,0 km/h N 2 0,0 km/h
20.05.2024 19:15 19,6 C 75 % 1010,4 hPa 0,0 l/m 0,0 km/h N 2 0,0 km/h
20.05.2024 19:10 19,8 C 74 % 1010,4 hPa 0,0 l/m 0,0 km/h N-NO 12 0,0 km/h
20.05.2024 19:05 20,1 C 71 % 1010,3 hPa 0,0 l/m 0,0 km/h N 360 0,0 km/h
_ Min-Zeit 06:10 15:10 17:30 - 04:00 - - 04:00
Minimum _ 11,9 C 54 % 1010,0 hPa - 0,0 km/h - - 0,0 km/h
_ Max-Zeit 15:20 23:55 10:50 06:30 05:40 - - 05:40
Maximum _ 24,0 C 83 % 1012,6 hPa 0,2 l/m 1,2 km/h
N-NW
- - 16,1 km/h
N-NW
Durchschnitt _ 17,6 C 73 % 1011,3 hPa #0,2 l/m 0,0 km/h N-NW - 0,6 km/h